createdAt,value
2023-05-11T00:00:45.439Z,101161.19
2023-05-11T00:03:14.834Z,101153.63
2023-05-11T00:05:48.479Z,101151.56
2023-05-11T00:08:17.537Z,101158.72
2023-05-11T00:10:48.523Z,101157.72
2023-05-11T00:13:16.765Z,101154.91
2023-05-11T00:15:44.886Z,101161.94
2023-05-11T00:18:13.201Z,101162.75
2023-05-11T00:20:41.267Z,101160.22
2023-05-11T00:23:10.929Z,101165.75
2023-05-11T00:25:39.201Z,101170.06
2023-05-11T00:28:07.874Z,101175.50
2023-05-11T00:30:35.983Z,101161.31
2023-05-11T00:33:04.140Z,101166.94
2023-05-11T00:35:32.786Z,101168.78
2023-05-11T00:38:00.855Z,101164.66
2023-05-11T00:40:32.007Z,101161.63
2023-05-11T00:43:00.093Z,101167.25
2023-05-11T00:45:28.774Z,101164.63
2023-05-11T00:47:56.986Z,101169.97
2023-05-11T00:50:25.510Z,101174.19
2023-05-11T00:52:53.708Z,101167.78
2023-05-11T00:55:22.009Z,101173.97
2023-05-11T00:57:51.476Z,101169.53
2023-05-11T01:00:19.666Z,101174.81
2023-05-11T01:02:48.023Z,101172.00
2023-05-11T01:05:17.700Z,101170.94
2023-05-11T01:07:52.416Z,101178.09
2023-05-11T01:10:29.473Z,101173.56
2023-05-11T01:13:03.832Z,101186.88
2023-05-11T01:15:37.259Z,101184.06
2023-05-11T01:18:13.060Z,101183.94
2023-05-11T01:20:44.501Z,101182.09
2023-05-11T01:23:32.254Z,101184.94
2023-05-11T01:26:30.148Z,101185.78
2023-05-11T01:29:26.260Z,101192.06
2023-05-11T01:31:57.208Z,101185.56
2023-05-11T01:34:30.488Z,101189.16
2023-05-11T01:37:01.866Z,101186.34
2023-05-11T01:39:33.948Z,101189.91
2023-05-11T01:42:08.098Z,101189.03
2023-05-11T01:44:36.965Z,101190.81
2023-05-11T01:47:08.585Z,101188.19
2023-05-11T01:49:39.146Z,101189.25
2023-05-11T01:52:09.876Z,101191.22
2023-05-11T01:54:39.771Z,101186.66
2023-05-11T01:57:08.085Z,101181.34
2023-05-11T01:59:36.976Z,101188.50
2023-05-11T02:02:07.567Z,101194.78
2023-05-11T02:04:36.644Z,101195.66
2023-05-11T02:07:04.871Z,101200.09
2023-05-11T02:09:33.972Z,101196.31
2023-05-11T02:12:02.885Z,101196.41
2023-05-11T02:14:34.289Z,101200.97
2023-05-11T02:17:03.397Z,101201.06
2023-05-11T02:19:33.894Z,101204.22
2023-05-11T02:22:02.346Z,101201.69
2023-05-11T02:24:31.925Z,101204.50
2023-05-11T02:27:00.240Z,101206.78
2023-05-11T02:29:28.729Z,101216.19
2023-05-11T02:32:00.575Z,101207.19
2023-05-11T02:34:31.153Z,101209.91
2023-05-11T02:37:04.132Z,101214.22
2023-05-11T02:39:34.366Z,101214.03
2023-05-11T02:42:07.745Z,101212.97
2023-05-11T02:44:37.611Z,101213.19
2023-05-11T02:47:07.731Z,101217.63
2023-05-11T02:49:37.242Z,101220.31
2023-05-11T02:52:07.473Z,101214.91
2023-05-11T02:54:36.430Z,101215.03
2023-05-11T02:57:04.941Z,101231.38
2023-05-11T02:59:33.417Z,101224.97
2023-05-11T03:02:01.821Z,101225.75
2023-05-11T03:04:30.012Z,101221.09
2023-05-11T03:06:58.162Z,101220.09
2023-05-11T03:09:27.660Z,101229.00
2023-05-11T03:11:56.180Z,101227.25
2023-05-11T03:14:24.551Z,101236.38
2023-05-11T03:16:53.479Z,101237.44
2023-05-11T03:19:21.668Z,101238.53
2023-05-11T03:21:51.201Z,101235.88
2023-05-11T03:24:19.793Z,101240.44
2023-05-11T03:26:49.440Z,101236.09
2023-05-11T03:29:18.796Z,101236.00
2023-05-11T03:31:48.949Z,101236.00
2023-05-11T03:34:19.115Z,101232.25
2023-05-11T03:36:49.272Z,101236.78
2023-05-11T03:39:17.736Z,101233.19
2023-05-11T03:41:47.227Z,101235.03
2023-05-11T03:44:19.922Z,101234.16
2023-05-11T03:46:48.977Z,101237.19
2023-05-11T03:49:17.959Z,101233.72
2023-05-11T03:51:46.637Z,101237.41
2023-05-11T03:54:15.107Z,101240.22
2023-05-11T03:56:43.168Z,101237.78
2023-05-11T03:59:15.554Z,101234.13
2023-05-11T04:01:45.355Z,101236.13
2023-05-11T04:04:13.486Z,101240.56
2023-05-11T04:06:41.612Z,101245.34
2023-05-11T04:09:09.693Z,101240.69
2023-05-11T04:11:38.147Z,101241.66
2023-05-11T04:14:06.216Z,101240.22
2023-05-11T04:16:34.326Z,101240.06
2023-05-11T04:19:04.052Z,101250.13
2023-05-11T04:21:32.672Z,101240.47
2023-05-11T04:24:00.871Z,101241.06
2023-05-11T04:26:28.999Z,101239.53
2023-05-11T04:28:57.167Z,101241.06
2023-05-11T04:31:25.236Z,101240.78
2023-05-11T04:33:53.309Z,101240.41
2023-05-11T04:36:23.365Z,101246.38
2023-05-11T04:38:53.079Z,101246.13
2023-05-11T04:41:22.353Z,101249.97
2023-05-11T04:43:50.438Z,101252.69
2023-05-11T04:46:18.506Z,101247.97
2023-05-11T04:48:46.614Z,101257.41
2023-05-11T04:51:14.670Z,101256.16
2023-05-11T04:53:44.702Z,101251.13
2023-05-11T04:56:13.114Z,101255.38
2023-05-11T04:58:41.173Z,101259.13
2023-05-11T05:01:09.346Z,101262.81
2023-05-11T05:03:37.440Z,101259.81
2023-05-11T05:06:05.611Z,101260.97
2023-05-11T05:08:33.726Z,101262.06
2023-05-11T05:11:03.166Z,101264.19
2023-05-11T05:13:31.200Z,101259.06
2023-05-11T05:15:59.506Z,101262.03
2023-05-11T05:18:27.580Z,101261.91
2023-05-11T05:20:55.792Z,101258.13
2023-05-11T05:23:23.832Z,101269.50
2023-05-11T05:25:52.034Z,101269.50
2023-05-11T05:28:21.821Z,101271.25
2023-05-11T05:30:49.986Z,101271.78
2023-05-11T05:33:18.093Z,101270.75
2023-05-11T05:35:46.867Z,101284.41
2023-05-11T05:38:14.941Z,101281.88
2023-05-11T05:40:43.036Z,101279.34
2023-05-11T05:43:11.332Z,101277.91
2023-05-11T05:45:40.884Z,101283.88
2023-05-11T05:48:09.756Z,101285.53
2023-05-11T05:50:38.357Z,101288.69
2023-05-11T05:53:07.390Z,101293.59
2023-05-11T05:55:35.465Z,101286.44
2023-05-11T05:58:03.546Z,101298.81
2023-05-11T06:00:31.866Z,101292.84
2023-05-11T06:03:01.382Z,101298.13
2023-05-11T06:05:29.628Z,101292.63
2023-05-11T06:08:09.242Z,101302.63
2023-05-11T06:10:39.254Z,101299.28
2023-05-11T06:13:09.854Z,101296.75
2023-05-11T06:15:37.989Z,101298.94
2023-05-11T06:18:07.727Z,101301.66
2023-05-11T06:20:35.967Z,101305.75
2023-05-11T06:23:04.008Z,101302.84
2023-05-11T06:25:35.083Z,101301.19
2023-05-11T06:28:03.253Z,101297.00
2023-05-11T06:30:31.439Z,101300.91
2023-05-11T06:32:59.605Z,101303.16
2023-05-11T06:35:30.316Z,101303.28
2023-05-11T06:37:58.441Z,101300.72
2023-05-11T06:40:26.741Z,101298.53
2023-05-11T06:42:54.852Z,101302.53
2023-05-11T06:45:23.106Z,101303.63
2023-05-11T06:47:51.360Z,101308.28
2023-05-11T06:50:21.290Z,101303.88
2023-05-11T06:52:51.312Z,101312.25
2023-05-11T06:55:19.453Z,101304.16
2023-05-11T06:57:47.600Z,101301.78
2023-05-11T07:00:16.879Z,101305.50
2023-05-11T07:02:45.171Z,101311.22
2023-05-11T07:05:13.306Z,101309.81
2023-05-11T07:07:41.975Z,101311.06
2023-05-11T07:10:12.055Z,101315.44
2023-05-11T07:12:40.152Z,101316.94
2023-05-11T07:15:09.543Z,101321.16
2023-05-11T07:17:37.692Z,101318.13
2023-05-11T07:20:06.582Z,101328.22
2023-05-11T07:22:34.660Z,101326.47
2023-05-11T07:25:02.779Z,101327.16
2023-05-11T07:27:34.772Z,101333.22
2023-05-11T07:30:03.622Z,101329.00
2023-05-11T07:32:31.850Z,101328.22
2023-05-11T07:34:59.968Z,101331.91
2023-05-11T07:37:28.127Z,101333.13
2023-05-11T07:39:56.217Z,101342.47
2023-05-11T07:42:24.341Z,101334.34
2023-05-11T07:44:53.837Z,101337.03
2023-05-11T07:47:23.401Z,101339.44
2023-05-11T07:49:51.748Z,101342.59
2023-05-11T07:52:19.890Z,101353.97
2023-05-11T07:54:47.986Z,101352.13
2023-05-11T07:57:16.115Z,101350.63
2023-05-11T07:59:44.211Z,101363.22
2023-05-11T08:02:13.726Z,101353.97
2023-05-11T08:04:41.858Z,101353.00
2023-05-11T08:07:09.983Z,101367.03
2023-05-11T08:09:38.135Z,101371.13
2023-05-11T08:12:06.402Z,101368.06
2023-05-11T08:14:34.503Z,101369.72
2023-05-11T08:17:02.604Z,101369.25
2023-05-11T08:19:32.060Z,101375.00
2023-05-11T08:22:01.510Z,101370.97
2023-05-11T08:24:29.603Z,101376.09
2023-05-11T08:26:57.704Z,101376.38
2023-05-11T08:29:27.459Z,101375.81
2023-05-11T08:31:55.810Z,101374.94
2023-05-11T08:34:24.379Z,101381.47
2023-05-11T08:36:55.201Z,101383.34
2023-05-11T08:39:39.025Z,101379.41
2023-05-11T08:42:11.668Z,101379.16
2023-05-11T08:44:43.645Z,101388.94
2023-05-11T08:47:22.912Z,101388.94
2023-05-11T08:49:53.404Z,101384.47
2023-05-11T08:52:22.909Z,101381.75
2023-05-11T08:54:51.026Z,101386.44
2023-05-11T08:57:19.251Z,101399.69
2023-05-11T08:59:47.745Z,101395.91
2023-05-11T09:02:18.821Z,101394.56
2023-05-11T09:04:49.130Z,101387.84
2023-05-11T09:07:22.265Z,101389.78
2023-05-11T09:09:51.789Z,101390.56
2023-05-11T09:12:20.718Z,101390.44
2023-05-11T09:14:48.771Z,101393.16
2023-05-11T09:17:16.876Z,101393.50
2023-05-11T09:20:01.403Z,101392.59
2023-05-11T09:22:32.046Z,101395.44
2023-05-11T09:25:03.502Z,101388.25
2023-05-11T09:27:32.410Z,101393.56
2023-05-11T09:30:11.903Z,101385.66
2023-05-11T09:32:50.797Z,101388.72
2023-05-11T09:35:24.110Z,101391.66
2023-05-11T09:38:04.562Z,101391.75
2023-05-11T09:40:37.793Z,101389.78
2023-05-11T09:43:17.651Z,101401.22
2023-05-11T09:45:46.485Z,101392.94
2023-05-11T09:48:29.501Z,101400.47
2023-05-11T09:51:03.456Z,101397.94
2023-05-11T09:53:40.967Z,101393.84
2023-05-11T09:56:11.134Z,101394.19
2023-05-11T09:58:47.657Z,101399.84
2023-05-11T10:01:16.353Z,101399.84
2023-05-11T10:03:49.112Z,101411.44
2023-05-11T10:06:19.907Z,101411.56
2023-05-11T10:08:49.242Z,101411.91
2023-05-11T10:11:19.062Z,101412.25
2023-05-11T10:13:47.155Z,101404.44
2023-05-11T10:16:17.316Z,101401.94
2023-05-11T10:18:45.782Z,101401.94
2023-05-11T10:21:16.692Z,101393.47
2023-05-11T10:23:44.769Z,101390.56
2023-05-11T10:26:13.080Z,101389.03
2023-05-11T10:28:42.621Z,101393.69
2023-05-11T10:31:11.140Z,101380.88
2023-05-11T10:33:39.487Z,101395.88
2023-05-11T10:36:09.453Z,101393.16
2023-05-11T10:38:37.582Z,101392.28
2023-05-11T10:41:13.998Z,101391.31
2023-05-11T10:44:04.734Z,101394.03
2023-05-11T10:46:45.254Z,101395.88
2023-05-11T10:49:27.869Z,101396.75
2023-05-11T10:52:16.672Z,101394.88
2023-05-11T10:54:54.718Z,101399.47
2023-05-11T10:57:42.052Z,101394.13
2023-05-11T11:01:01.226Z,101394.66
2023-05-11T11:03:31.051Z,101392.25
2023-05-11T11:06:00.858Z,101397.59
2023-05-11T11:08:29.882Z,101402.38
2023-05-11T11:10:58.090Z,101402.91
2023-05-11T11:13:26.200Z,101400.94
2023-05-11T11:16:10.388Z,101401.44
2023-05-11T11:18:39.961Z,101400.91
2023-05-11T11:21:08.898Z,101408.63
2023-05-11T11:23:50.086Z,101407.63
2023-05-11T11:26:39.605Z,101399.69
2023-05-11T11:29:13.844Z,101408.44
2023-05-11T11:31:42.365Z,101399.47
2023-05-11T11:34:39.455Z,101405.94
2023-05-11T11:37:10.035Z,101405.72
2023-05-11T11:40:09.048Z,101409.69
2023-05-11T11:42:44.193Z,101406.53
2023-05-11T11:45:33.030Z,101407.38
2023-05-11T11:48:23.215Z,101411.72
2023-05-11T11:51:03.088Z,101407.53
2023-05-11T11:54:00.849Z,101405.34
2023-05-11T11:56:45.883Z,101404.63
2023-05-11T11:59:17.209Z,101406.66
2023-05-11T12:01:46.519Z,101411.03
2023-05-11T12:04:43.267Z,101415.25
2023-05-11T12:07:13.741Z,101406.50
2023-05-11T12:09:44.439Z,101409.84
2023-05-11T12:12:12.723Z,101402.91
2023-05-11T12:14:44.704Z,101403.69
2023-05-11T12:17:16.321Z,101408.03
2023-05-11T12:19:45.433Z,101410.31
2023-05-11T12:22:16.417Z,101396.34
2023-05-11T12:24:45.047Z,101398.72
2023-05-11T12:27:13.380Z,101389.19
2023-05-11T12:29:41.678Z,101393.81
2023-05-11T12:32:13.789Z,101392.19
2023-05-11T12:34:42.081Z,101395.69
2023-05-11T12:37:10.261Z,101397.69
2023-05-11T12:39:39.874Z,101405.19
2023-05-11T12:42:08.063Z,101392.19
2023-05-11T12:44:36.396Z,101388.16
2023-05-11T12:47:05.088Z,101397.59
2023-05-11T12:49:33.549Z,101385.09
2023-05-11T12:52:04.064Z,101385.72
2023-05-11T12:54:33.727Z,101384.28
2023-05-11T12:57:04.052Z,101380.09
2023-05-11T12:59:37.432Z,101382.59
2023-05-11T13:02:10.949Z,101377.56
2023-05-11T13:04:40.282Z,101372.63
2023-05-11T13:07:08.541Z,101375.72
2023-05-11T13:09:36.688Z,101372.72
2023-05-11T13:12:19.670Z,101371.56
2023-05-11T13:14:49.072Z,101381.47
2023-05-11T13:17:31.277Z,101381.63
2023-05-11T13:20:17.952Z,101376.75
2023-05-11T13:22:46.629Z,101375.03
2023-05-11T13:25:15.538Z,101370.03
2023-05-11T13:27:45.296Z,101373.91
2023-05-11T13:30:14.072Z,101380.91
2023-05-11T13:32:42.202Z,101360.06
2023-05-11T13:35:10.990Z,101364.81
2023-05-11T13:37:39.091Z,101373.69
2023-05-11T13:40:10.377Z,101365.03
2023-05-11T13:42:38.812Z,101360.81
2023-05-11T13:45:09.765Z,101367.13
2023-05-11T13:47:37.913Z,101364.53
2023-05-11T13:50:07.132Z,101360.75
2023-05-11T13:52:35.245Z,101369.16
2023-05-11T13:55:03.330Z,101368.31
2023-05-11T13:57:31.487Z,101374.22
2023-05-11T13:59:59.607Z,101356.91
2023-05-11T14:02:29.171Z,101362.06
2023-05-11T14:04:57.264Z,101359.41
2023-05-11T14:07:35.552Z,101368.47
2023-05-11T14:10:11.850Z,101355.13
2023-05-11T14:12:39.934Z,101358.06
2023-05-11T14:15:09.441Z,101350.34
2023-05-11T14:17:39.315Z,101354.72
2023-05-11T14:20:09.054Z,101348.69
2023-05-11T14:22:37.272Z,101352.47
2023-05-11T14:25:06.027Z,101349.53
2023-05-11T14:27:34.113Z,101353.31
2023-05-11T14:30:02.161Z,101349.63
2023-05-11T14:32:30.330Z,101342.44
2023-05-11T14:34:59.836Z,101347.69
2023-05-11T14:37:28.060Z,101355.47
2023-05-11T14:39:56.259Z,101355.78
2023-05-11T14:42:24.347Z,101348.00
2023-05-11T14:44:52.424Z,101344.50
2023-05-11T14:47:20.582Z,101344.50
2023-05-11T14:49:48.618Z,101348.84
2023-05-11T14:52:18.114Z,101343.94
2023-05-11T14:54:46.170Z,101350.50
2023-05-11T14:57:14.543Z,101348.75
2023-05-11T14:59:55.409Z,101344.34
2023-05-11T15:02:27.681Z,101347.84
2023-05-11T15:04:56.076Z,101349.28
2023-05-11T15:07:25.679Z,101349.44
2023-05-11T15:09:54.474Z,101351.19
2023-05-11T15:12:22.844Z,101355.41
2023-05-11T15:14:51.084Z,101355.78
2023-05-11T15:17:19.182Z,101358.69
2023-05-11T15:19:47.334Z,101359.88
2023-05-11T15:22:17.286Z,101361.66
2023-05-11T15:24:46.830Z,101368.47
2023-05-11T15:27:15.090Z,101365.41
2023-05-11T15:29:43.261Z,101362.84
2023-05-11T15:32:13.808Z,101369.59
2023-05-11T15:34:58.001Z,101375.25
2023-05-11T15:37:27.803Z,101378.94
2023-05-11T15:39:57.331Z,101372.66
2023-05-11T15:42:25.544Z,101365.22
2023-05-11T15:44:53.642Z,101369.06
2023-05-11T15:47:21.880Z,101369.09
2023-05-11T15:49:50.179Z,101374.34
2023-05-11T15:52:18.332Z,101363.09
2023-05-11T15:54:46.487Z,101369.34
2023-05-11T15:57:17.183Z,101368.28
2023-05-11T15:59:45.245Z,101371.41
2023-05-11T16:02:13.446Z,101370.81
2023-05-11T16:04:41.838Z,101362.00
2023-05-11T16:07:10.145Z,101367.47
2023-05-11T16:09:38.464Z,101367.75
2023-05-11T16:12:07.771Z,101363.00
2023-05-11T16:14:37.221Z,101366.75
2023-05-11T16:17:05.946Z,101372.34
2023-05-11T16:19:34.116Z,101370.00
2023-05-11T16:22:02.203Z,101366.78
2023-05-11T16:24:32.870Z,101361.59
2023-05-11T16:27:02.223Z,101363.59
2023-05-11T16:29:30.418Z,101358.28
2023-05-11T16:32:00.108Z,101359.53
2023-05-11T16:34:28.382Z,101353.09
2023-05-11T16:36:58.763Z,101359.72
2023-05-11T16:39:27.541Z,101367.47
2023-05-11T16:41:55.645Z,101350.38
2023-05-11T16:44:24.603Z,101357.72
2023-05-11T16:46:53.865Z,101356.25
2023-05-11T16:49:23.618Z,101360.06
2023-05-11T16:51:52.474Z,101357.31
2023-05-11T16:54:21.003Z,101352.44
2023-05-11T16:56:49.136Z,101355.38
2023-05-11T16:59:17.287Z,101350.78
2023-05-11T17:01:47.990Z,101349.00
2023-05-11T17:04:17.175Z,101353.59
2023-05-11T17:06:46.734Z,101347.19
2023-05-11T17:09:14.942Z,101343.25
2023-05-11T17:11:43.236Z,101349.69
2023-05-11T17:14:11.320Z,101354.44
2023-05-11T17:16:39.460Z,101355.72
2023-05-11T17:19:09.447Z,101349.78
2023-05-11T17:21:38.057Z,101355.38
2023-05-11T17:24:08.014Z,101350.78
2023-05-11T17:26:47.012Z,101353.78
2023-05-11T17:29:16.699Z,101344.00
2023-05-11T17:31:46.483Z,101354.91
2023-05-11T17:34:14.967Z,101353.91
2023-05-11T17:36:43.150Z,101353.78
2023-05-11T17:39:12.858Z,101352.91
2023-05-11T17:41:40.979Z,101356.91
2023-05-11T17:44:09.276Z,101356.44
2023-05-11T17:46:37.458Z,101354.63
2023-05-11T17:49:06.596Z,101352.84
2023-05-11T17:51:34.790Z,101351.78
2023-05-11T17:54:02.889Z,101356.13
2023-05-11T17:56:32.824Z,101352.09
2023-05-11T17:59:01.010Z,101351.59
2023-05-11T18:01:29.140Z,101352.84
2023-05-11T18:04:01.482Z,101351.53
2023-05-11T18:06:29.830Z,101354.16
2023-05-11T18:08:58.869Z,101349.44
2023-05-11T18:11:27.232Z,101358.25
2023-05-11T18:13:56.683Z,101361.63
2023-05-11T18:16:24.913Z,101352.94
2023-05-11T18:18:53.164Z,101364.09
2023-05-11T18:21:21.262Z,101351.88
2023-05-11T18:23:49.378Z,101365.84
2023-05-11T18:26:19.197Z,101359.06
2023-05-11T18:28:47.372Z,101365.97
2023-05-11T18:31:18.878Z,101365.50
2023-05-11T18:33:47.467Z,101371.34
2023-05-11T18:36:15.820Z,101365.50
2023-05-11T18:38:45.136Z,101376.91
2023-05-11T18:41:13.242Z,101376.50
2023-05-11T18:43:43.819Z,101389.53
2023-05-11T18:46:14.131Z,101384.44
2023-05-11T18:48:43.623Z,101391.97
2023-05-11T18:51:11.813Z,101387.91
2023-05-11T18:53:39.950Z,101394.16
2023-05-11T18:56:08.258Z,101393.53
2023-05-11T18:58:36.378Z,101399.44
2023-05-11T19:01:04.682Z,101403.66
2023-05-11T19:03:32.983Z,101405.84
2023-05-11T19:06:02.639Z,101409.16
2023-05-11T19:08:31.233Z,101413.22
2023-05-11T19:10:59.325Z,101417.41
2023-05-11T19:13:27.435Z,101415.25
2023-05-11T19:15:55.479Z,101413.09
2023-05-11T19:18:23.629Z,101419.78
2023-05-11T19:20:51.823Z,101419.38
2023-05-11T19:23:23.292Z,101427.97
2023-05-11T19:25:51.365Z,101431.06
2023-05-11T19:28:19.500Z,101427.91
2023-05-11T19:30:47.677Z,101440.34
2023-05-11T19:33:15.854Z,101443.47
2023-05-11T19:35:44.458Z,101439.25
2023-05-11T19:38:12.573Z,101444.03
2023-05-11T19:43:13.184Z,101451.03
2023-05-11T19:45:43.385Z,101453.06
2023-05-11T19:48:11.607Z,101443.31
2023-05-11T19:50:39.738Z,101454.41
2023-05-11T19:53:08.022Z,101457.34
2023-05-11T19:55:36.133Z,101453.75
2023-05-11T19:58:06.828Z,101456.59
2023-05-11T20:00:35.056Z,101454.84
2023-05-11T20:03:03.342Z,101458.53
2023-05-11T20:05:31.528Z,101460.47
2023-05-11T20:07:59.714Z,101463.44
2023-05-11T20:10:28.103Z,101464.63
2023-05-11T20:12:56.470Z,101458.34
2023-05-11T20:15:26.238Z,101461.34
2023-05-11T20:17:54.375Z,101460.72
2023-05-11T20:20:22.522Z,101463.78
2023-05-11T20:22:50.620Z,101470.38
2023-05-11T20:25:19.203Z,101467.13
2023-05-11T20:27:50.970Z,101462.03
2023-05-11T20:30:22.790Z,101475.03
2023-05-11T20:35:23.377Z,101479.81
2023-05-11T20:37:51.480Z,101478.09
2023-05-11T20:40:20.076Z,101476.34
2023-05-11T20:42:48.402Z,101474.41
2023-05-11T20:45:16.574Z,101487.00
2023-05-11T20:47:44.794Z,101483.31
2023-05-11T20:50:15.511Z,101482.44
2023-05-11T20:52:43.586Z,101487.00
2023-05-11T20:55:12.046Z,101478.09
2023-05-11T20:57:40.123Z,101479.94
2023-05-11T21:00:11.066Z,101488.94
2023-05-11T21:02:39.322Z,101487.31
2023-05-11T21:05:08.087Z,101489.34
2023-05-11T21:07:37.638Z,101488.59
2023-05-11T21:10:06.275Z,101492.06
2023-05-11T21:12:34.562Z,101494.78
2023-05-11T21:15:02.740Z,101490.34
2023-05-11T21:17:33.750Z,101494.78
2023-05-11T21:20:01.902Z,101493.91
2023-05-11T21:22:30.077Z,101496.75
2023-05-11T21:24:59.496Z,101498.59
2023-05-11T21:27:27.604Z,101498.47
2023-05-11T21:29:56.370Z,101494.03
2023-05-11T21:32:24.763Z,101494.03
2023-05-11T21:34:52.897Z,101501.31
2023-05-11T21:37:21.227Z,101491.31
2023-05-11T21:39:49.353Z,101495.00
2023-05-11T21:42:18.841Z,101502.38
2023-05-11T21:44:47.201Z,101500.75
2023-05-11T21:47:15.485Z,101509.78
2023-05-11T21:49:43.608Z,101510.00
2023-05-11T21:52:12.258Z,101512.88
2023-05-11T21:54:40.363Z,101510.28
2023-05-11T21:57:08.536Z,101515.81
2023-05-11T21:59:37.992Z,101510.50
2023-05-11T22:02:06.513Z,101516.78
2023-05-11T22:04:35.027Z,101515.81
2023-05-11T22:07:03.457Z,101516.69
2023-05-11T22:09:31.725Z,101523.97
2023-05-11T22:11:59.806Z,101523.19
2023-05-11T22:14:27.942Z,101524.19
2023-05-11T22:16:57.425Z,101522.44
2023-05-11T22:19:26.201Z,101525.16
2023-05-11T22:21:54.271Z,101528.72
2023-05-11T22:24:23.097Z,101534.25
2023-05-11T22:26:51.469Z,101529.81
2023-05-11T22:29:19.658Z,101526.31
2023-05-11T22:31:48.981Z,101529.13
2023-05-11T22:34:20.997Z,101527.50
2023-05-11T22:36:49.144Z,101537.44
2023-05-11T22:39:17.266Z,101542.97
2023-05-11T22:41:45.346Z,101543.97
2023-05-11T22:44:13.463Z,101547.44
2023-05-11T22:46:41.535Z,101543.97
2023-05-11T22:49:09.625Z,101553.06
2023-05-11T22:51:39.104Z,101547.66
2023-05-11T22:54:07.516Z,101553.94
2023-05-11T22:56:35.630Z,101551.34
2023-05-11T22:59:04.984Z,101553.94
2023-05-11T23:01:34.149Z,101553.06
2023-05-11T23:04:02.282Z,101547.66
2023-05-11T23:06:30.764Z,101553.94
2023-05-11T23:09:00.221Z,101565.56
2023-05-11T23:11:28.428Z,101560.94
2023-05-11T23:13:56.506Z,101552.69
2023-05-11T23:16:25.040Z,101553.44
2023-05-11T23:18:53.299Z,101547.16
2023-05-11T23:21:21.509Z,101549.78
2023-05-11T23:23:49.600Z,101552.50
2023-05-11T23:26:19.047Z,101557.06
2023-05-11T23:28:47.247Z,101553.44
2023-05-11T23:31:15.350Z,101551.63
2023-05-11T23:33:43.461Z,101549.00
2023-05-11T23:36:11.562Z,101555.28
2023-05-11T23:38:39.637Z,101556.94
2023-05-11T23:41:07.775Z,101548.81
2023-05-11T23:43:37.308Z,101554.22
2023-05-11T23:46:05.397Z,101564.00
2023-05-11T23:48:33.518Z,101554.88
2023-05-11T23:51:01.600Z,101565.53
2023-05-11T23:53:29.807Z,101560.00
2023-05-11T23:55:57.870Z,101561.63
2023-05-11T23:58:25.986Z,101557.97
